createdAt,value
2019-04-03T00:02:15.560Z,1.57
2019-04-03T00:04:50.012Z,1.22
2019-04-03T00:07:21.461Z,1.42
2019-04-03T00:09:51.690Z,1.10
2019-04-03T00:12:21.891Z,1.55
2019-04-03T00:14:52.033Z,1.40
2019-04-03T00:17:22.135Z,0.88
2019-04-03T00:19:52.307Z,1.22
2019-04-03T00:22:22.477Z,1.42
2019-04-03T00:24:52.937Z,1.92
2019-04-03T00:27:23.178Z,1.07
2019-04-03T00:29:54.327Z,1.05
2019-04-03T00:32:24.661Z,1.20
2019-04-03T00:34:55.077Z,1.42
2019-04-03T00:37:25.479Z,1.35
2019-04-03T00:39:55.660Z,2.08
2019-04-03T00:42:25.986Z,1.17
2019-04-03T00:44:56.574Z,1.05
2019-04-03T00:47:26.832Z,1.00
2019-04-03T00:49:57.187Z,0.90
2019-04-03T00:52:28.345Z,1.65
2019-04-03T00:54:58.820Z,2.05
2019-04-03T00:57:29.305Z,1.40
2019-04-03T00:59:59.667Z,1.72
2019-04-03T01:02:30.056Z,1.55
2019-04-03T01:05:00.613Z,1.87
2019-04-03T01:07:30.929Z,1.85
2019-04-03T01:10:01.301Z,2.27
2019-04-03T01:12:31.748Z,2.20
2019-04-03T01:15:02.338Z,2.17
2019-04-03T01:17:34.875Z,2.90
2019-04-03T01:20:07.006Z,1.72
2019-04-03T01:22:39.163Z,2.08
2019-04-03T01:25:09.597Z,2.33
2019-04-03T01:27:41.585Z,2.37
2019-04-03T01:30:14.016Z,2.67
2019-04-03T01:32:46.065Z,3.92
2019-04-03T01:35:17.468Z,2.70
2019-04-03T01:37:50.065Z,1.75
2019-04-03T01:40:20.835Z,2.37
2019-04-03T01:42:52.758Z,3.10
2019-04-03T01:45:25.249Z,2.40
2019-04-03T01:47:57.624Z,2.80
2019-04-03T01:50:28.643Z,2.22
2019-04-03T01:53:01.775Z,2.90
2019-04-03T01:55:34.126Z,2.20
2019-04-03T01:58:06.321Z,4.17
2019-04-03T02:00:37.639Z,3.47
2019-04-03T02:03:09.750Z,3.70
2019-04-03T02:05:40.108Z,4.12
2019-04-03T02:08:10.879Z,4.15
2019-04-03T02:10:41.400Z,3.25
2019-04-03T02:13:12.567Z,4.00
2019-04-03T02:15:42.716Z,4.25
2019-04-03T02:18:13.602Z,4.67
2019-04-03T02:20:44.802Z,4.50
2019-04-03T02:23:16.131Z,5.78
2019-04-03T02:25:46.333Z,5.45
2019-04-03T02:28:16.601Z,5.37
2019-04-03T02:30:47.337Z,4.97
2019-04-03T02:33:17.839Z,5.25
2019-04-03T02:35:48.292Z,5.33
2019-04-03T02:38:21.445Z,4.85
2019-04-03T02:40:50.758Z,6.05
2019-04-03T02:43:21.029Z,7.72
2019-04-03T02:45:51.758Z,6.42
2019-04-03T02:48:22.124Z,7.58
2019-04-03T02:50:52.847Z,8.00
2019-04-03T02:53:27.524Z,9.13
2019-04-03T02:56:00.801Z,7.33
2019-04-03T02:58:32.789Z,7.83
2019-04-03T03:01:06.010Z,8.10
2019-04-03T03:03:34.896Z,8.65
2019-04-03T03:06:07.407Z,7.97
2019-04-03T03:08:40.361Z,8.15
2019-04-03T03:11:09.997Z,6.70
2019-04-03T03:13:41.411Z,8.90
2019-04-03T03:16:14.576Z,7.55
2019-04-03T03:18:44.705Z,6.97
2019-04-03T03:21:15.217Z,7.53
2019-04-03T03:23:45.902Z,8.03
2019-04-03T03:26:17.618Z,9.25
2019-04-03T03:28:48.458Z,7.62
2019-04-03T03:31:19.504Z,6.50
2019-04-03T03:33:50.257Z,7.62
2019-04-03T03:36:24.871Z,8.13
2019-04-03T03:38:54.420Z,8.55
2019-04-03T03:41:24.865Z,6.85
2019-04-03T03:43:57.781Z,7.47
2019-04-03T03:46:30.574Z,7.67
2019-04-03T03:49:04.853Z,6.72
2019-04-03T03:51:36.501Z,6.95
2019-04-03T03:54:07.652Z,7.05
2019-04-03T03:56:38.351Z,7.72
2019-04-03T03:59:12.146Z,6.95
2019-04-03T04:01:42.920Z,6.53
2019-04-03T04:04:15.281Z,6.97
2019-04-03T04:06:45.160Z,7.33
2019-04-03T04:09:18.443Z,8.03
2019-04-03T04:11:48.635Z,6.87
2019-04-03T04:14:22.514Z,6.30
2019-04-03T04:16:51.254Z,6.30
2019-04-03T04:19:22.628Z,6.83
2019-04-03T04:21:58.562Z,8.00
2019-04-03T04:24:30.773Z,6.72
2019-04-03T04:27:03.193Z,7.17
2019-04-03T04:29:32.826Z,7.53
2019-04-03T04:32:02.921Z,7.40
2019-04-03T04:34:33.065Z,7.53
2019-04-03T04:37:03.284Z,7.58
2019-04-03T04:39:38.860Z,7.55
2019-04-03T04:42:09.025Z,7.55
2019-04-03T04:44:41.245Z,7.37
2019-04-03T04:47:15.784Z,7.10
2019-04-03T04:49:45.959Z,7.97
2019-04-03T04:52:18.112Z,7.00
2019-04-03T04:54:48.987Z,8.43
2019-04-03T04:57:19.159Z,7.58
2019-04-03T04:59:49.628Z,8.90
2019-04-03T05:02:20.456Z,9.65
2019-04-03T05:04:50.674Z,9.35
2019-04-03T05:07:20.803Z,7.97
2019-04-03T05:09:51.142Z,7.58
2019-04-03T05:12:21.285Z,7.87
2019-04-03T05:14:51.405Z,7.70
2019-04-03T05:17:21.696Z,7.50
2019-04-03T05:19:51.979Z,9.65
2019-04-03T05:22:23.965Z,9.73
2019-04-03T05:24:53.981Z,9.28
2019-04-03T05:27:24.336Z,7.62
2019-04-03T05:29:54.686Z,5.87
2019-04-03T05:32:26.317Z,7.70
2019-04-03T05:34:56.576Z,7.85
2019-04-03T05:37:27.409Z,7.05
2019-04-03T05:39:57.840Z,7.58
2019-04-03T05:42:29.185Z,7.97
2019-04-03T05:45:03.864Z,8.18
2019-04-03T05:47:33.939Z,7.05
2019-04-03T05:50:04.768Z,6.40
2019-04-03T05:52:35.423Z,7.83
2019-04-03T05:55:06.060Z,6.97
2019-04-03T05:57:36.314Z,7.08
2019-04-03T06:00:07.505Z,6.97
2019-04-03T06:02:37.907Z,5.87
2019-04-03T06:05:08.219Z,6.75
2019-04-03T06:07:38.452Z,6.10
2019-04-03T06:10:08.742Z,5.62
2019-04-03T06:12:44.581Z,6.03
2019-04-03T06:15:13.741Z,5.45
2019-04-03T06:17:43.960Z,6.25
2019-04-03T06:20:14.166Z,6.17
2019-04-03T06:22:44.383Z,5.85
2019-04-03T06:25:14.580Z,5.90
2019-04-03T06:27:46.293Z,5.92
2019-04-03T06:30:16.631Z,6.30
2019-04-03T06:32:47.633Z,4.42
2019-04-03T06:35:17.757Z,5.28
2019-04-03T06:37:48.078Z,6.12
2019-04-03T06:40:18.495Z,5.97
2019-04-03T06:42:48.820Z,5.22
2019-04-03T06:45:19.088Z,6.67
2019-04-03T06:47:49.259Z,5.58
2019-04-03T06:50:19.532Z,5.30
2019-04-03T06:52:49.775Z,5.95
2019-04-03T06:55:20.077Z,4.87
2019-04-03T06:57:54.874Z,6.17
2019-04-03T07:00:25.705Z,5.70
2019-04-03T07:02:55.909Z,5.12
2019-04-03T07:05:27.756Z,4.80
2019-04-03T07:08:00.596Z,5.53
2019-04-03T07:10:29.799Z,5.25
2019-04-03T07:13:00.494Z,5.50
2019-04-03T07:15:30.740Z,5.50
2019-04-03T07:18:01.764Z,6.60
2019-04-03T07:20:32.492Z,7.70
2019-04-03T07:23:03.740Z,8.43
2019-04-03T07:25:34.684Z,8.30
2019-04-03T07:28:08.279Z,8.78
2019-04-03T07:30:38.030Z,7.05
2019-04-03T07:33:08.155Z,7.15
2019-04-03T07:35:40.631Z,5.37
2019-04-03T07:38:11.834Z,6.62
2019-04-03T07:40:43.668Z,6.10
2019-04-03T07:43:14.320Z,5.10
2019-04-03T07:45:44.844Z,4.08
2019-04-03T07:48:17.202Z,4.47
2019-04-03T07:50:47.707Z,3.33
2019-04-03T07:53:19.880Z,3.25
2019-04-03T07:55:49.882Z,3.62
2019-04-03T07:58:20.087Z,3.67
2019-04-03T08:00:50.546Z,2.85
2019-04-03T08:03:21.613Z,1.82
2019-04-03T08:05:51.841Z,2.22
2019-04-03T08:08:22.203Z,1.67
2019-04-03T08:10:52.331Z,1.52
2019-04-03T08:13:22.897Z,1.92
2019-04-03T08:15:53.819Z,1.87
2019-04-03T08:18:24.186Z,1.87
2019-04-03T08:20:55.135Z,1.80
2019-04-03T08:23:26.084Z,1.70
2019-04-03T08:25:56.193Z,2.05
2019-04-03T08:28:29.557Z,2.15
2019-04-03T08:30:58.066Z,1.45
2019-04-03T08:33:28.333Z,1.20
2019-04-03T08:35:58.525Z,2.40
2019-04-03T08:38:28.640Z,1.50
2019-04-03T08:40:59.364Z,2.45
2019-04-03T08:43:31.526Z,1.95
2019-04-03T08:46:01.841Z,2.40
2019-04-03T08:48:32.951Z,2.40
2019-04-03T08:51:03.923Z,1.70
2019-04-03T08:53:35.106Z,1.72
2019-04-03T08:56:05.702Z,1.52
2019-04-03T08:58:36.461Z,1.95
2019-04-03T09:01:06.595Z,1.50
2019-04-03T09:03:36.676Z,2.62
2019-04-03T09:06:07.649Z,2.52
2019-04-03T09:08:37.831Z,1.50
2019-04-03T09:11:08.249Z,2.95
2019-04-03T09:13:38.399Z,2.40
2019-04-03T09:16:10.090Z,2.27
2019-04-03T09:18:40.390Z,2.27
2019-04-03T09:21:10.584Z,2.35
2019-04-03T09:23:40.713Z,3.58
2019-04-03T09:26:10.972Z,1.65
2019-04-03T09:28:42.193Z,3.22
2019-04-03T09:31:12.626Z,2.85
2019-04-03T09:33:42.780Z,2.37
2019-04-03T09:36:12.915Z,3.08
2019-04-03T09:38:43.003Z,2.50
2019-04-03T09:41:13.157Z,2.00
2019-04-03T09:43:43.696Z,2.83
2019-04-03T09:46:13.856Z,3.92
2019-04-03T09:48:43.989Z,4.00
2019-04-03T09:51:14.242Z,4.55
2019-04-03T09:53:44.475Z,4.17
2019-04-03T09:56:14.605Z,4.35
2019-04-03T09:58:44.788Z,4.20
2019-04-03T10:01:17.969Z,3.20
2019-04-03T10:03:46.791Z,1.80
2019-04-03T10:06:17.312Z,2.47
2019-04-03T10:08:47.835Z,2.92
2019-04-03T10:11:20.465Z,2.58
2019-04-03T10:13:49.869Z,1.92
2019-04-03T10:16:21.204Z,1.15
2019-04-03T10:18:51.448Z,2.05
2019-04-03T10:21:22.222Z,1.87
2019-04-03T10:24:02.137Z,1.87
2019-04-03T10:26:32.428Z,1.00
2019-04-03T10:29:03.374Z,1.17
2019-04-03T10:31:36.370Z,0.75
2019-04-03T10:34:06.500Z,0.85
2019-04-03T10:36:36.950Z,0.90
2019-04-03T10:39:11.250Z,0.45
2019-04-03T10:41:41.697Z,0.95
2019-04-03T10:44:13.010Z,0.47
2019-04-03T10:46:43.969Z,0.65
2019-04-03T10:49:19.465Z,1.45
2019-04-03T10:51:49.660Z,0.75
2019-04-03T10:54:21.911Z,1.12
2019-04-03T10:56:54.526Z,0.53
2019-04-03T10:59:25.309Z,0.42
2019-04-03T11:01:57.379Z,0.53
2019-04-03T11:04:27.603Z,0.50
2019-04-03T11:06:57.905Z,0.47
2019-04-03T11:09:37.210Z,0.50
2019-04-03T11:12:10.734Z,0.62
2019-04-03T11:14:41.523Z,0.30
2019-04-03T11:17:12.042Z,0.50
2019-04-03T11:19:44.237Z,0.30
2019-04-03T11:22:16.717Z,0.50
2019-04-03T11:24:47.543Z,0.20
2019-04-03T11:27:17.809Z,0.75
2019-04-03T11:29:52.712Z,0.53
2019-04-03T11:32:23.740Z,0.50
2019-04-03T11:34:54.394Z,0.70
2019-04-03T11:37:26.265Z,0.30
2019-04-03T11:40:03.905Z,0.78
2019-04-03T11:42:31.156Z,0.50
2019-04-03T11:45:04.615Z,0.30
2019-04-03T11:47:33.344Z,0.50
2019-04-03T11:50:03.873Z,0.50
2019-04-03T11:52:34.290Z,0.23
2019-04-03T11:55:04.660Z,0.37
2019-04-03T11:57:35.138Z,0.47
2019-04-03T12:00:09.653Z,0.72
2019-04-03T12:02:43.463Z,0.50
2019-04-03T12:05:14.759Z,0.50
2019-04-03T12:07:43.924Z,0.40
2019-04-03T12:10:14.646Z,0.30
2019-04-03T12:12:45.101Z,0.30
2019-04-03T12:15:16.437Z,0.47
2019-04-03T12:17:46.627Z,0.45
2019-04-03T12:20:17.698Z,0.33
2019-04-03T12:22:47.934Z,0.20
2019-04-03T12:25:23.083Z,0.30
2019-04-03T12:27:53.607Z,0.45
2019-04-03T12:30:26.355Z,0.40
2019-04-03T12:32:55.746Z,0.30
2019-04-03T12:35:26.178Z,0.30
2019-04-03T12:37:56.791Z,0.33
2019-04-03T12:40:27.045Z,0.40
2019-04-03T12:42:57.683Z,0.40
2019-04-03T12:45:28.312Z,0.20
2019-04-03T12:47:58.924Z,0.30
2019-04-03T12:50:29.267Z,0.53
2019-04-03T12:52:59.902Z,0.50
2019-04-03T12:55:30.292Z,0.45
2019-04-03T12:58:02.328Z,0.30
2019-04-03T13:00:33.653Z,0.50
2019-04-03T13:03:04.568Z,0.30
2019-04-03T13:05:37.413Z,0.30
2019-04-03T13:08:06.716Z,0.28
2019-04-03T13:10:43.173Z,0.40
2019-04-03T13:13:12.445Z,0.42
2019-04-03T13:15:42.741Z,0.40
2019-04-03T13:18:13.467Z,0.30
2019-04-03T13:20:44.091Z,0.25
2019-04-03T13:23:15.569Z,0.28
2019-04-03T13:25:46.027Z,0.28
2019-04-03T13:28:16.243Z,0.40
2019-04-03T13:30:46.543Z,0.40
2019-04-03T13:33:17.832Z,0.60
2019-04-03T13:35:49.131Z,0.78
2019-04-03T13:38:22.873Z,0.40
2019-04-03T13:40:53.283Z,0.95
2019-04-03T13:43:23.708Z,0.40
2019-04-03T13:45:53.876Z,0.40
2019-04-03T13:48:24.060Z,0.30
2019-04-03T13:50:55.426Z,0.23
2019-04-03T13:53:27.891Z,0.23
2019-04-03T13:55:58.351Z,0.42
2019-04-03T13:58:29.006Z,0.45
2019-04-03T14:01:02.414Z,0.50
2019-04-03T14:03:31.337Z,0.37
2019-04-03T14:06:02.205Z,0.62
2019-04-03T14:08:34.181Z,0.50
2019-04-03T14:11:04.872Z,0.35
2019-04-03T14:13:35.280Z,0.37
2019-04-03T14:16:18.190Z,0.50
2019-04-03T14:18:40.222Z,0.53
2019-04-03T14:21:10.790Z,0.55
2019-04-03T14:23:42.084Z,0.30
2019-04-03T14:26:14.298Z,0.23
2019-04-03T14:28:44.366Z,0.50
2019-04-03T14:31:16.686Z,0.17
2019-04-03T14:33:47.139Z,0.20
2019-04-03T14:36:19.227Z,0.20
2019-04-03T14:38:49.693Z,0.20
2019-04-03T14:41:19.899Z,0.20
2019-04-03T14:43:50.185Z,0.20
2019-04-03T14:46:20.459Z,0.20
2019-04-03T14:48:57.783Z,0.10
2019-04-03T14:51:28.527Z,0.10
2019-04-03T14:53:58.780Z,0.30
2019-04-03T14:56:33.260Z,0.10
2019-04-03T14:59:03.729Z,0.10
2019-04-03T15:01:34.167Z,0.20
2019-04-03T15:04:04.510Z,0.10
2019-04-03T15:06:36.422Z,0.10
2019-04-03T15:09:13.656Z,1.12
2019-04-03T15:11:43.838Z,1.80
2019-04-03T15:14:14.232Z,2.45
2019-04-03T15:16:53.039Z,2.58
2019-04-03T15:19:23.992Z,2.37
2019-04-03T15:21:58.892Z,2.98
2019-04-03T15:24:27.330Z,2.15
2019-04-03T15:27:00.070Z,3.67
2019-04-03T15:29:36.862Z,3.05
2019-04-03T15:32:09.787Z,2.92
2019-04-03T15:34:41.488Z,2.75
2019-04-03T15:37:15.774Z,2.42
2019-04-03T15:39:50.638Z,2.42
2019-04-03T15:42:23.273Z,2.27
2019-04-03T15:44:57.166Z,1.87
2019-04-03T15:47:35.258Z,1.98
2019-04-03T15:50:03.180Z,1.67
2019-04-03T15:52:56.203Z,1.52
2019-04-03T15:55:26.558Z,0.90
2019-04-03T15:57:56.867Z,1.25
2019-04-03T16:00:28.410Z,1.70
2019-04-03T16:02:59.089Z,1.20
2019-04-03T16:05:31.270Z,1.57
2019-04-03T16:08:01.962Z,1.27
2019-04-03T16:10:32.781Z,1.60
2019-04-03T16:13:06.979Z,0.98
2019-04-03T16:15:40.155Z,1.22
2019-04-03T16:18:10.418Z,1.67
2019-04-03T16:20:41.418Z,2.58
2019-04-03T16:23:14.975Z,1.62
2019-04-03T16:25:45.174Z,2.22
2019-04-03T16:28:24.002Z,1.22
2019-04-03T16:30:55.853Z,1.98
2019-04-03T16:33:28.979Z,1.20
2019-04-03T16:35:59.753Z,1.60
2019-04-03T16:38:30.178Z,1.22
2019-04-03T16:41:02.348Z,1.55
2019-04-03T16:43:32.433Z,1.30
2019-04-03T16:46:02.851Z,0.98
2019-04-03T16:48:33.910Z,1.05
2019-04-03T16:51:06.564Z,1.00
2019-04-03T16:53:49.968Z,1.00
2019-04-03T16:56:22.085Z,1.40
2019-04-03T16:58:52.425Z,0.88
2019-04-03T17:01:28.084Z,1.67
2019-04-03T17:04:02.841Z,1.85
2019-04-03T17:06:32.139Z,1.12
2019-04-03T17:09:05.557Z,1.70
2019-04-03T17:11:38.512Z,1.67
2019-04-03T17:14:09.014Z,0.98
2019-04-03T17:16:40.207Z,1.00
2019-04-03T17:19:15.803Z,2.25
2019-04-03T17:21:49.516Z,1.47
2019-04-03T17:24:19.845Z,1.12
2019-04-03T17:26:56.071Z,1.02
2019-04-03T17:29:28.097Z,1.02
2019-04-03T17:31:58.844Z,1.07
2019-04-03T17:34:33.887Z,1.92
2019-04-03T17:37:07.875Z,2.25
2019-04-03T17:39:38.088Z,1.20
2019-04-03T17:42:08.620Z,1.42
2019-04-03T17:44:40.454Z,1.90
2019-04-03T17:47:12.483Z,2.05
2019-04-03T17:49:47.724Z,1.70
2019-04-03T17:52:20.238Z,1.90
2019-04-03T17:54:50.456Z,1.90
2019-04-03T17:57:24.313Z,2.67
2019-04-03T17:59:54.453Z,1.67
2019-04-03T18:02:25.111Z,2.75
2019-04-03T18:04:55.553Z,2.12
2019-04-03T18:07:28.290Z,3.27
2019-04-03T18:10:00.000Z,2.27
2019-04-03T18:12:33.637Z,2.50
2019-04-03T18:15:03.917Z,2.58
2019-04-03T18:17:35.979Z,2.55
2019-04-03T18:20:08.374Z,2.17
2019-04-03T18:22:38.697Z,2.15
2019-04-03T18:25:09.953Z,2.50
2019-04-03T18:27:40.109Z,2.17
2019-04-03T18:30:11.867Z,2.75
2019-04-03T18:32:45.496Z,2.50
2019-04-03T18:35:14.670Z,2.98
2019-04-03T18:37:46.305Z,2.27
2019-04-03T18:40:16.467Z,2.87
2019-04-03T18:42:49.380Z,2.45
2019-04-03T18:45:24.995Z,1.75
2019-04-03T18:47:51.130Z,2.55
2019-04-03T18:50:21.631Z,1.52
2019-04-03T18:52:52.334Z,1.87
2019-04-03T18:55:23.070Z,1.72
2019-04-03T18:57:53.348Z,2.02
2019-04-03T19:00:23.436Z,1.52
2019-04-03T19:02:59.820Z,2.05
2019-04-03T19:05:34.152Z,2.30
2019-04-03T19:08:12.989Z,2.30
2019-04-03T19:10:36.571Z,2.15
2019-04-03T19:13:07.293Z,2.85
2019-04-03T19:15:37.677Z,1.40
2019-04-03T19:18:19.258Z,2.72
2019-04-03T19:20:41.398Z,2.33
2019-04-03T19:23:14.014Z,2.75
2019-04-03T19:25:44.170Z,3.10
2019-04-03T19:28:14.473Z,1.85
2019-04-03T19:30:44.860Z,1.98
2019-04-03T19:33:15.100Z,1.10
2019-04-03T19:35:45.345Z,1.60
2019-04-03T19:38:15.533Z,2.47
2019-04-03T19:40:45.750Z,2.62
2019-04-03T19:43:18.469Z,3.17
2019-04-03T19:45:49.904Z,2.55
2019-04-03T19:48:20.968Z,2.47
2019-04-03T19:50:51.370Z,2.25
2019-04-03T19:53:21.570Z,3.05
2019-04-03T19:55:54.390Z,2.75
2019-04-03T19:58:24.238Z,2.55
2019-04-03T20:00:54.466Z,3.72
2019-04-03T20:03:26.502Z,3.87
2019-04-03T20:05:56.726Z,3.40
2019-04-03T20:08:31.175Z,2.72
2019-04-03T20:11:04.712Z,3.58
2019-04-03T20:13:34.209Z,3.75
2019-04-03T20:16:04.372Z,4.22
2019-04-03T20:18:34.543Z,2.35
2019-04-03T20:21:05.539Z,3.75
2019-04-03T20:23:36.024Z,2.12
2019-04-03T20:26:06.180Z,2.65
2019-04-03T20:28:36.814Z,3.55
2019-04-03T20:31:07.144Z,3.90
2019-04-03T20:33:37.295Z,2.70
2019-04-03T20:36:07.466Z,3.62
2019-04-03T20:38:37.689Z,2.62
2019-04-03T20:41:07.910Z,2.83
2019-04-03T20:43:38.356Z,3.37
2019-04-03T20:46:09.319Z,3.92
2019-04-03T20:48:39.518Z,3.75
2019-04-03T20:51:10.653Z,3.52
2019-04-03T20:53:40.731Z,3.90
2019-04-03T20:56:10.863Z,5.28
2019-04-03T20:58:41.163Z,3.98
2019-04-03T21:01:13.838Z,3.80
2019-04-03T21:03:44.308Z,3.40
2019-04-03T21:06:14.894Z,4.80
2019-04-03T21:08:45.915Z,4.60
2019-04-03T21:11:16.052Z,6.12
2019-04-03T21:13:46.511Z,6.78
2019-04-03T21:16:16.938Z,6.65
2019-04-03T21:18:47.622Z,8.90
2019-04-03T21:21:19.054Z,8.70
2019-04-03T21:23:49.376Z,9.58
2019-04-03T21:26:19.504Z,8.28
2019-04-03T21:28:49.727Z,8.00
2019-04-03T21:31:19.888Z,9.15
2019-04-03T21:33:51.269Z,11.65
2019-04-03T21:36:22.482Z,10.00
2019-04-03T21:38:52.604Z,2.98
2019-04-03T21:41:22.714Z,0.25
2019-04-03T21:43:55.353Z,0.50
2019-04-03T21:46:24.754Z,0.40
2019-04-03T21:48:54.920Z,0.47
2019-04-03T21:51:25.093Z,0.50
2019-04-03T21:53:56.504Z,0.47
2019-04-03T21:56:26.734Z,0.93
2019-04-03T21:58:56.828Z,0.70
2019-04-03T22:01:28.219Z,0.30
2019-04-03T22:03:58.368Z,0.50
2019-04-03T22:06:28.632Z,0.78
2019-04-03T22:09:00.362Z,1.12
2019-04-03T22:11:34.783Z,0.98
2019-04-03T22:14:04.528Z,0.98
2019-04-03T22:16:34.734Z,1.67
2019-04-03T22:19:04.923Z,2.40
2019-04-03T22:21:44.808Z,1.25
2019-04-03T22:24:15.120Z,2.00
2019-04-03T22:26:45.781Z,1.47
2019-04-03T22:29:16.010Z,0.93
2019-04-03T22:31:46.376Z,1.95
2019-04-03T22:34:19.348Z,1.70
2019-04-03T22:36:49.593Z,2.05
2019-04-03T22:39:20.684Z,2.37
2019-04-03T22:41:51.009Z,2.67
2019-04-03T22:44:21.536Z,0.72
2019-04-03T22:46:54.131Z,1.10
2019-04-03T22:49:24.342Z,0.72
2019-04-03T22:51:54.668Z,0.42
2019-04-03T22:54:24.847Z,0.20
2019-04-03T22:56:55.069Z,0.10
2019-04-03T22:59:25.319Z,0.30
2019-04-03T23:01:55.532Z,0.20
2019-04-03T23:04:25.923Z,0.42
2019-04-03T23:06:56.398Z,0.75
2019-04-03T23:09:26.720Z,0.75
2019-04-03T23:11:57.022Z,0.62
2019-04-03T23:14:27.303Z,0.60
2019-04-03T23:16:57.557Z,0.80
2019-04-03T23:19:28.083Z,1.82
2019-04-03T23:21:59.459Z,1.90
2019-04-03T23:24:29.900Z,1.75
2019-04-03T23:27:02.378Z,2.05
2019-04-03T23:29:32.292Z,0.95
2019-04-03T23:32:02.978Z,2.33
2019-04-03T23:34:33.319Z,2.72
2019-04-03T23:37:04.859Z,3.00
2019-04-03T23:39:35.200Z,2.55
2019-04-03T23:42:06.873Z,3.37
2019-04-03T23:44:37.748Z,2.40
2019-04-03T23:47:08.044Z,3.80
2019-04-03T23:49:41.006Z,2.15
2019-04-03T23:52:10.429Z,2.75
2019-04-03T23:54:40.726Z,3.30
2019-04-03T23:57:11.028Z,3.72
2019-04-03T23:59:42.434Z,2.62
